Dallas, Texas
Traffic Map
Current Weather Conditions
Dallas, Texas
Broken Clouds
Broken Clouds
20°
Feels Like: 20°
Wind Chill: 20° Ceiling: 20000
Heat Index: 20° Visibility: 10mi
Dew Point: Wind: 12mph
Humidity: 49% Direction: 150° (SSE)
Pressure: 29.81in Gusts: 0mph
Raw Report DataKDAL 271653Z 15010KT 10SM SCT160 BKN200 BKN250 20/09 A2981 RMK AO2 SLP092 T02000089
Traffic Incident Summary
Active as of:
Severity:
Category:
InformationThere was an issue retrieving the traffic information for this location. Please try a different location or try again shortly.
Advertisements
Track Severe Weather on mobile